Pernille — 5BNZ2 — position and weather

sailwx.info

Track history (hours):
 
Tides and Currents Weather Stations Pressure Air Temp Water Temp Dewpoint Dewpoint Depression Visibility Wind Speed Wind Dir Waves Ship Positions

Pernille

Last reported at 2018-Apr-20 00:47 UTC. Time now 2018-Apr-22 04:35 UTC.
Position N 37°14' W 009°55'.

Length 83 m; draft 5 m.

Type: Cargo ship. MMSI: 212662000.

Date/timePositionNaut miles runAvg speedWind from/ knotsBaromVisibWave heightAir tempDewpointWater temp
2018-Apr-20 00:47N 37°14' W 009°55'310.0
2018-Apr-20 00:27N 37°17' W 009°55'510.2
2018-Apr-20 00:00N 37°22' W 009°57'510.2
2018-Apr-19 23:30N 37°27' W 009°58'510.1
2018-Apr-19 23:00N 37°32' W 009°59'7 9.9
2018-Apr-19 22:17N 37°39' W 009°60'310.1
2018-Apr-19 22:00N 37°42' W 010°00'510.2
2018-Apr-19 21:30N 37°47' W 010°01'10 9.9
2018-Apr-19 20:31N 37°56' W 010°03'010.2
2018-Apr-19 20:30N 37°57' W 010°03'5 9.8
2018-Apr-19 20:00N 38°01' W 010°04'5 9.6
2018-Apr-19 19:30N 38°06' W 010°06'5 9.4
2018-Apr-19 18:59N 38°11' W 010°07'5 9.5
2018-Apr-19 18:28N 38°16' W 010°08'4 9.5
2018-Apr-19 18:00N 38°20' W 010°09'5 9.9
2018-Apr-19 17:29N 38°25' W 010°10'5 9.9
2018-Apr-19 17:00N 38°30' W 010°11'3510.2
2018-Apr-19 13:35N 39°05' W 010°13'1 9.7
2018-Apr-19 13:28N 39°06' W 010°13'510.5
2018-Apr-19 13:00N 39°11' W 010°13'  
2018-Apr-15 12:20N 49°52' W 003°09'512.2
2018-Apr-15 11:58N 49°54' W 003°03'612.1
2018-Apr-15 11:30N 49°57' W 002°55'611.9
2018-Apr-15 10:59N 49°59' W 002°46'611.5
2018-Apr-15 10:29N 50°01' W 002°38'39 8.6
2018-Apr-15 05:58N 50°12' W 001°40'4 8.9
2018-Apr-15 05:30N 50°13' W 001°34'6 9.8
2018-Apr-15 04:55N 50°15' W 001°25'510.8
2018-Apr-15 04:29N 50°17' W 001°18'611.8
2018-Apr-15 04:00N 50°18' W 001°10'3313.3
2018-Apr-15 01:32N 50°28' W 000°21'113.1
2018-Apr-15 01:29N 50°28' W 000°20'612.8
2018-Apr-15 01:00N 50°30' W 000°10'612.4
2018-Apr-15 00:30N 50°32' W 000°01'612.1
2018-Apr-15 00:00N 50°34' E 000°08'611.7
2018-Apr-14 23:30N 50°35' E 000°17'611.3
2018-Apr-14 23:00N 50°37' E 000°25'510.7
2018-Apr-14 22:30N 50°39' E 000°33'510.4
2018-Apr-14 22:00N 50°42' E 000°40'510.2
2018-Apr-14 21:30N 50°45' E 000°47'510.2
2018-Apr-14 21:00N 50°47' E 000°53'2712.0
2018-Apr-14 18:47N 51°04' E 001°27'514.6
2018-Apr-14 18:27N 51°07' E 001°33'714.7
2018-Apr-14 18:01N 51°11' E 001°41'713.6
2018-Apr-14 17:30N 51°16' E 001°48'612.8
2018-Apr-14 17:00N 51°22' E 001°53'612.1
2018-Apr-14 16:30N 51°27' E 001°57'611.3
2018-Apr-14 16:00N 51°32' E 002°02'610.9
2018-Apr-14 15:29N 51°36' E 002°09'510.6
2018-Apr-14 15:00N 51°40' E 002°14'4310.1
2018-Apr-14 10:43N 52°13' E 002°60'10211.1
2018-Apr-14 01:30N 53°30' E 004°49'612.3
2018-Apr-14 01:00N 53°32' E 004°59'11311.0
2018-Apr-13 14:45N 54°01' E 008°04'412.2
2018-Apr-13 14:24N 54°01' E 008°11'513.3
2018-Apr-13 14:00N 54°00' E 008°20'714.0
2018-Apr-13 13:30N 53°58' E 008°32'612.6
2018-Apr-13 13:00N 53°55' E 008°41'611.7
2018-Apr-13 12:30N 53°51' E 008°47'510.7
2018-Apr-13 12:00N 53°51' E 008°56'5 9.6
2018-Apr-13 11:30N 53°52' E 009°04'3 6.3
2018-Apr-13 11:00N 53°54' E 009°09'1 1.1
2018-Apr-13 10:30N 53°54' E 009°09'0 0.2
2018-Apr-13 09:59N 53°54' E 009°09'0 0.0
2018-Apr-13 09:30N 53°54' E 009°09'0 0.0
2018-Apr-13 09:00N 53°54' E 009°09'3 5.9
2018-Apr-13 08:30N 53°56' E 009°13'4 8.3
2018-Apr-13 08:00N 53°59' E 009°17'3 5.6
2018-Apr-13 07:28N 54°02' E 009°18'0 0.1
2018-Apr-13 06:59N 54°02' E 009°18'0 0.7
2018-Apr-13 06:30N 54°03' E 009°18'4 7.9
2018-Apr-13 05:58N 54°07' E 009°20'4 7.6
2018-Apr-13 05:30N 54°10' E 009°23'4 8.2
2018-Apr-13 05:01N 54°11' E 009°30'4 8.6
2018-Apr-13 04:31N 54°13' E 009°36'4 8.1
2018-Apr-13 04:01N 54°17' E 009°39'4 7.3
2018-Apr-13 03:31N 54°20' E 009°43'4 8.1
2018-Apr-13 03:00N 54°22' E 009°50'30 2.7
2018-Apr-12 16:03N 54°35' E 010°36'111.1
2018-Apr-12 16:00N 54°35' E 010°37'611.4
2018-Apr-12 15:30N 54°35' E 010°47'611.9
2018-Apr-12 15:00N 54°36' E 010°57'612.2
2018-Apr-12 14:31N 54°36' E 011°08'612.5
2018-Apr-12 14:01N 54°34' E 011°18'612.0
2018-Apr-12 13:31N 54°32' E 011°27'612.1
2018-Apr-12 13:00N 54°29' E 011°37'612.1
2018-Apr-12 12:31N 54°27' E 011°46'7810.9
2018-Apr-12 05:20N 55°02' E 013°48'511.4
2018-Apr-12 04:55N 55°03' E 013°56'1011.0
2018-Apr-12 04:00N 55°09' E 014°10'711.7
2018-Apr-12 03:23N 55°15' E 014°18'611.7
2018-Apr-12 02:54N 55°20' E 014°24'611.4
2018-Apr-12 02:25N 55°24' E 014°30'511.4
2018-Apr-12 02:00N 55°27' E 014°35'611.3
2018-Apr-12 01:30N 55°30' E 014°44'611.3
2018-Apr-12 01:00N 55°33' E 014°53'711.2
2018-Apr-12 00:24N 55°36' E 015°03'411.3
2018-Apr-12 00:00N 55°39' E 015°10'611.4
2018-Apr-11 23:31N 55°41' E 015°19'611.4
2018-Apr-11 23:01N 55°44' E 015°28'611.6
2018-Apr-11 22:31N 55°47' E 015°36'611.5
2018-Apr-11 22:01N 55°50' E 015°45'611.5
2018-Apr-11 21:30N 55°53' E 015°54'611.4
2018-Apr-11 21:00N 55°56' E 016°03'611.4
2018-Apr-11 20:31N 55°59' E 016°12'611.3
2018-Apr-11 20:01N 56°01' E 016°21'611.3
2018-Apr-11 19:30N 56°04' E 016°29'611.3
2018-Apr-11 19:01N 56°07' E 016°38'510.7
2018-Apr-11 18:31N 56°11' E 016°45'611.1
2018-Apr-11 18:00N 56°16' E 016°49'15011.1
2018-Apr-11 04:29N 58°42' E 017°52'810.3
2018-Apr-11 03:41N 58°49' E 017°44'210.7
2018-Apr-11 03:27N 58°52' E 017°43'511.4
2018-Apr-11 03:00N 58°57' E 017°43'510.1
2018-Apr-11 02:30N 59°02' E 017°42'  
Track history (hours):
 
Tides and Currents Weather Stations Pressure Air Temp Water Temp Dewpoint Dewpoint Depression Visibility Wind Speed Wind Dir Waves Ship Positions

Pernille

Last reported at 2018-Apr-20 00:47 UTC. Time now 2018-Apr-22 04:35 UTC.
Position N 37°14' W 009°55'.

Length 83 m; draft 5 m.

Type: Cargo ship. MMSI: 212662000.

Date/timePositionNaut miles runAvg speedWind from/ knotsBaromVisibWave heightAir tempDewpointWater temp
2018-Apr-20 00:47N 37°14' W 009°55'310.0
2018-Apr-20 00:27N 37°17' W 009°55'510.2
2018-Apr-20 00:00N 37°22' W 009°57'510.2
2018-Apr-19 23:30N 37°27' W 009°58'510.1
2018-Apr-19 23:00N 37°32' W 009°59'7 9.9
2018-Apr-19 22:17N 37°39' W 009°60'310.1
2018-Apr-19 22:00N 37°42' W 010°00'510.2
2018-Apr-19 21:30N 37°47' W 010°01'10 9.9
2018-Apr-19 20:31N 37°56' W 010°03'010.2
2018-Apr-19 20:30N 37°57' W 010°03'5 9.8
2018-Apr-19 20:00N 38°01' W 010°04'5 9.6
2018-Apr-19 19:30N 38°06' W 010°06'5 9.4
2018-Apr-19 18:59N 38°11' W 010°07'5 9.5
2018-Apr-19 18:28N 38°16' W 010°08'4 9.5
2018-Apr-19 18:00N 38°20' W 010°09'5 9.9
2018-Apr-19 17:29N 38°25' W 010°10'5 9.9
2018-Apr-19 17:00N 38°30' W 010°11'3510.2
2018-Apr-19 13:35N 39°05' W 010°13'1 9.7
2018-Apr-19 13:28N 39°06' W 010°13'510.5
2018-Apr-19 13:00N 39°11' W 010°13'  
2018-Apr-15 12:20N 49°52' W 003°09'512.2
2018-Apr-15 11:58N 49°54' W 003°03'612.1
2018-Apr-15 11:30N 49°57' W 002°55'611.9
2018-Apr-15 10:59N 49°59' W 002°46'611.5
2018-Apr-15 10:29N 50°01' W 002°38'39 8.6
2018-Apr-15 05:58N 50°12' W 001°40'4 8.9
2018-Apr-15 05:30N 50°13' W 001°34'6 9.8
2018-Apr-15 04:55N 50°15' W 001°25'510.8
2018-Apr-15 04:29N 50°17' W 001°18'611.8
2018-Apr-15 04:00N 50°18' W 001°10'3313.3
2018-Apr-15 01:32N 50°28' W 000°21'113.1
2018-Apr-15 01:29N 50°28' W 000°20'612.8
2018-Apr-15 01:00N 50°30' W 000°10'612.4
2018-Apr-15 00:30N 50°32' W 000°01'612.1
2018-Apr-15 00:00N 50°34' E 000°08'611.7
2018-Apr-14 23:30N 50°35' E 000°17'611.3
2018-Apr-14 23:00N 50°37' E 000°25'510.7
2018-Apr-14 22:30N 50°39' E 000°33'510.4
2018-Apr-14 22:00N 50°42' E 000°40'510.2
2018-Apr-14 21:30N 50°45' E 000°47'510.2
2018-Apr-14 21:00N 50°47' E 000°53'2712.0
2018-Apr-14 18:47N 51°04' E 001°27'514.6
2018-Apr-14 18:27N 51°07' E 001°33'714.7
2018-Apr-14 18:01N 51°11' E 001°41'713.6
2018-Apr-14 17:30N 51°16' E 001°48'612.8
2018-Apr-14 17:00N 51°22' E 001°53'612.1
2018-Apr-14 16:30N 51°27' E 001°57'611.3
2018-Apr-14 16:00N 51°32' E 002°02'610.9
2018-Apr-14 15:29N 51°36' E 002°09'510.6
2018-Apr-14 15:00N 51°40' E 002°14'4310.1
2018-Apr-14 10:43N 52°13' E 002°60'10211.1
2018-Apr-14 01:30N 53°30' E 004°49'612.3
2018-Apr-14 01:00N 53°32' E 004°59'11311.0
2018-Apr-13 14:45N 54°01' E 008°04'412.2
2018-Apr-13 14:24N 54°01' E 008°11'513.3
2018-Apr-13 14:00N 54°00' E 008°20'714.0
2018-Apr-13 13:30N 53°58' E 008°32'612.6
2018-Apr-13 13:00N 53°55' E 008°41'611.7
2018-Apr-13 12:30N 53°51' E 008°47'510.7
2018-Apr-13 12:00N 53°51' E 008°56'5 9.6
2018-Apr-13 11:30N 53°52' E 009°04'3 6.3
2018-Apr-13 11:00N 53°54' E 009°09'1 1.1
2018-Apr-13 10:30N 53°54' E 009°09'0 0.2
2018-Apr-13 09:59N 53°54' E 009°09'0 0.0
2018-Apr-13 09:30N 53°54' E 009°09'0 0.0
2018-Apr-13 09:00N 53°54' E 009°09'3 5.9
2018-Apr-13 08:30N 53°56' E 009°13'4 8.3
2018-Apr-13 08:00N 53°59' E 009°17'3 5.6
2018-Apr-13 07:28N 54°02' E 009°18'0 0.1
2018-Apr-13 06:59N 54°02' E 009°18'0 0.7
2018-Apr-13 06:30N 54°03' E 009°18'4 7.9
2018-Apr-13 05:58N 54°07' E 009°20'4 7.6
2018-Apr-13 05:30N 54°10' E 009°23'4 8.2
2018-Apr-13 05:01N 54°11' E 009°30'4 8.6
2018-Apr-13 04:31N 54°13' E 009°36'4 8.1
2018-Apr-13 04:01N 54°17' E 009°39'4 7.3
2018-Apr-13 03:31N 54°20' E 009°43'4 8.1
2018-Apr-13 03:00N 54°22' E 009°50'30 2.7
2018-Apr-12 16:03N 54°35' E 010°36'111.1
2018-Apr-12 16:00N 54°35' E 010°37'611.4
2018-Apr-12 15:30N 54°35' E 010°47'611.9
2018-Apr-12 15:00N 54°36' E 010°57'612.2
2018-Apr-12 14:31N 54°36' E 011°08'612.5
2018-Apr-12 14:01N 54°34' E 011°18'612.0
2018-Apr-12 13:31N 54°32' E 011°27'612.1
2018-Apr-12 13:00N 54°29' E 011°37'612.1
2018-Apr-12 12:31N 54°27' E 011°46'7810.9
2018-Apr-12 05:20N 55°02' E 013°48'511.4
2018-Apr-12 04:55N 55°03' E 013°56'1011.0
2018-Apr-12 04:00N 55°09' E 014°10'711.7
2018-Apr-12 03:23N 55°15' E 014°18'611.7
2018-Apr-12 02:54N 55°20' E 014°24'611.4
2018-Apr-12 02:25N 55°24' E 014°30'511.4
2018-Apr-12 02:00N 55°27' E 014°35'611.3
2018-Apr-12 01:30N 55°30' E 014°44'611.3
2018-Apr-12 01:00N 55°33' E 014°53'711.2
2018-Apr-12 00:24N 55°36' E 015°03'411.3
2018-Apr-12 00:00N 55°39' E 015°10'611.4
2018-Apr-11 23:31N 55°41' E 015°19'611.4
2018-Apr-11 23:01N 55°44' E 015°28'611.6
2018-Apr-11 22:31N 55°47' E 015°36'611.5
2018-Apr-11 22:01N 55°50' E 015°45'611.5
2018-Apr-11 21:30N 55°53' E 015°54'611.4
2018-Apr-11 21:00N 55°56' E 016°03'611.4
2018-Apr-11 20:31N 55°59' E 016°12'611.3
2018-Apr-11 20:01N 56°01' E 016°21'611.3
2018-Apr-11 19:30N 56°04' E 016°29'611.3
2018-Apr-11 19:01N 56°07' E 016°38'510.7
2018-Apr-11 18:31N 56°11' E 016°45'611.1
2018-Apr-11 18:00N 56°16' E 016°49'15011.1
2018-Apr-11 04:29N 58°42' E 017°52'810.3
2018-Apr-11 03:41N 58°49' E 017°44'210.7
2018-Apr-11 03:27N 58°52' E 017°43'511.4
2018-Apr-11 03:00N 58°57' E 017°43'510.1
2018-Apr-11 02:30N 59°02' E 017°42'  

Dump ship's entire track history